createdAt,value
2023-03-10T04:20:06.345Z,63.60
2023-03-10T04:20:44.791Z,64.10
2023-03-10T04:21:24.925Z,64.00
2023-03-10T04:22:01.185Z,64.00
2023-03-10T04:22:36.045Z,64.00
2023-03-10T04:23:11.520Z,63.80
2023-03-10T04:23:46.395Z,63.90
2023-03-10T04:24:27.506Z,63.90
2023-03-10T04:25:01.766Z,63.80
2023-03-10T04:25:37.039Z,63.80
2023-03-10T04:26:11.594Z,63.80
2023-03-10T04:26:48.210Z,63.80
2023-03-10T04:27:21.732Z,63.80
2023-03-10T04:27:57.652Z,63.80
2023-03-10T04:28:33.272Z,63.80
2023-03-10T04:29:06.215Z,64.20
2023-03-10T04:29:43.917Z,63.80
2023-03-10T04:30:21.254Z,63.70
2023-03-10T04:30:57.275Z,63.70
2023-03-10T04:31:35.896Z,63.80
2023-03-10T04:32:10.208Z,63.90
2023-03-10T04:32:49.139Z,63.90
2023-03-10T04:33:25.186Z,63.80
2023-03-10T04:33:58.571Z,63.70
2023-03-10T04:34:31.825Z,63.60
2023-03-10T04:35:08.981Z,63.60
2023-03-10T04:35:44.720Z,63.60
2023-03-10T04:36:21.469Z,63.70
2023-03-10T04:36:59.996Z,63.70
2023-03-10T04:37:33.383Z,63.70
2023-03-10T04:38:09.870Z,63.70
2023-03-10T04:38:45.255Z,63.80
2023-03-10T04:39:20.123Z,63.80
2023-03-10T04:39:53.460Z,63.80
2023-03-10T04:40:28.005Z,63.70
2023-03-10T04:41:03.695Z,63.80
2023-03-10T04:41:41.730Z,63.80
2023-03-10T04:42:16.382Z,63.80
2023-03-10T04:42:51.079Z,63.80
2023-03-10T04:43:25.596Z,63.80
2023-03-10T04:44:01.909Z,63.70
2023-03-10T04:44:37.932Z,63.70
2023-03-10T04:45:14.335Z,63.70
2023-03-10T04:45:53.056Z,63.60
2023-03-10T04:46:28.248Z,63.50
2023-03-10T04:47:03.838Z,63.50
2023-03-10T04:47:39.595Z,63.40
2023-03-10T04:48:16.808Z,63.50
2023-03-10T04:48:53.840Z,63.50
2023-03-10T04:49:31.201Z,63.40
2023-03-10T04:50:07.855Z,63.40
2023-03-10T04:50:43.239Z,63.40
2023-03-10T04:51:18.830Z,63.30
2023-03-10T04:51:59.572Z,63.20
2023-03-10T04:52:34.533Z,63.10
2023-03-10T04:53:11.998Z,63.60
2023-03-10T04:53:44.582Z,63.20
2023-03-10T04:54:19.035Z,63.20
2023-03-10T04:54:52.448Z,63.20
2023-03-10T04:55:28.602Z,63.30
2023-03-10T04:56:10.892Z,63.20
2023-03-10T04:56:47.078Z,63.20
2023-03-10T04:57:21.086Z,63.30
2023-03-10T04:57:59.619Z,63.30
2023-03-10T04:58:36.273Z,63.30
2023-03-10T04:59:10.232Z,63.40
2023-03-10T04:59:49.201Z,63.50
2023-03-10T05:00:22.142Z,63.50
2023-03-10T05:01:03.113Z,63.60
2023-03-10T05:01:43.927Z,63.50
2023-03-10T05:02:18.154Z,63.50
2023-03-10T05:02:54.494Z,63.40
2023-03-10T05:03:29.398Z,63.40
2023-03-10T05:04:03.787Z,63.40
2023-03-10T05:04:42.961Z,63.20
2023-03-10T05:05:18.543Z,63.10
2023-03-10T05:05:53.252Z,63.20
2023-03-10T05:06:28.239Z,63.10
2023-03-10T05:07:15.714Z,63.10
2023-03-10T05:07:57.148Z,63.10
2023-03-10T05:08:35.424Z,63.10
2023-03-10T05:09:08.774Z,62.90
2023-03-10T05:09:44.418Z,62.60
2023-03-10T05:10:22.588Z,62.60
2023-03-10T05:10:57.484Z,62.50
2023-03-10T05:11:33.160Z,62.40
2023-03-10T05:12:13.088Z,62.40
2023-03-10T05:12:48.422Z,63.20
2023-03-10T05:13:21.715Z,62.70
2023-03-10T05:13:55.273Z,62.70
2023-03-10T05:14:30.696Z,62.60
2023-03-10T05:15:05.909Z,62.60
2023-03-10T05:15:40.105Z,62.50
2023-03-10T05:16:27.240Z,62.50
2023-03-10T05:17:01.681Z,62.40
2023-03-10T05:17:36.840Z,62.50
2023-03-10T05:18:12.925Z,62.50
2023-03-10T05:18:47.305Z,62.30
2023-03-10T05:19:23.419Z,62.30
2023-03-10T05:20:00.273Z,62.20
2023-03-10T05:20:36.530Z,62.10
2023-03-10T05:21:10.840Z,62.20
2023-03-10T05:21:45.007Z,62.30
2023-03-10T05:22:19.474Z,62.20
2023-03-10T05:22:54.534Z,62.30
2023-03-10T05:23:30.160Z,62.10
2023-03-10T05:24:06.840Z,61.80
2023-03-10T05:24:41.584Z,61.70
2023-03-10T05:25:16.837Z,61.60
2023-03-10T05:25:53.191Z,61.80
2023-03-10T05:26:28.427Z,61.90
2023-03-10T05:27:03.312Z,62.00
2023-03-10T05:27:40.182Z,61.80
2023-03-10T05:28:13.874Z,61.70
2023-03-10T05:28:50.155Z,61.80
2023-03-10T05:29:31.158Z,61.60
2023-03-10T05:30:16.042Z,61.40
2023-03-10T05:30:53.799Z,61.50
2023-03-10T05:31:29.860Z,61.50
2023-03-10T05:32:11.043Z,61.20
2023-03-10T05:32:51.456Z,61.20
2023-03-10T05:33:25.241Z,61.20
2023-03-10T05:33:59.951Z,61.40
2023-03-10T05:34:33.332Z,61.50
2023-03-10T05:35:12.727Z,61.70
2023-03-10T05:35:48.386Z,61.80
2023-03-10T05:36:22.617Z,61.70
2023-03-10T05:36:59.818Z,61.60
2023-03-10T05:37:42.154Z,61.70
2023-03-10T05:38:20.386Z,61.60
2023-03-10T05:38:56.619Z,61.70
2023-03-10T05:39:31.661Z,61.70
2023-03-10T05:40:13.054Z,61.60
2023-03-10T05:40:46.016Z,61.50
2023-03-10T05:41:21.331Z,61.40
2023-03-10T05:41:59.693Z,61.40
2023-03-10T05:42:39.410Z,61.20
2023-03-10T05:43:17.645Z,61.00
2023-03-10T05:43:53.066Z,60.80
2023-03-10T05:44:30.505Z,60.60
2023-03-10T05:45:06.184Z,60.40
2023-03-10T05:45:40.863Z,60.30
2023-03-10T05:46:14.966Z,60.30
2023-03-10T05:46:55.313Z,60.30
2023-03-10T05:47:29.581Z,60.20
2023-03-10T05:48:05.563Z,60.30
2023-03-10T05:48:40.046Z,60.20
2023-03-10T05:49:13.957Z,60.30
2023-03-10T05:49:48.288Z,60.50
2023-03-10T05:50:23.005Z,60.60
2023-03-10T05:51:01.735Z,60.70
2023-03-10T05:51:37.138Z,60.90
2023-03-10T05:52:11.023Z,60.90
2023-03-10T05:52:46.640Z,60.90
2023-03-10T05:53:22.358Z,60.80
2023-03-10T05:53:55.842Z,60.70
2023-03-10T05:54:33.919Z,60.60
2023-03-10T05:55:12.377Z,60.80
2023-03-10T05:55:47.546Z,61.10
2023-03-10T05:56:22.982Z,61.20
2023-03-10T05:57:01.074Z,61.30
2023-03-10T05:57:36.570Z,61.20
2023-03-10T05:58:11.334Z,61.30
2023-03-10T05:58:44.828Z,61.30
2023-03-10T05:59:22.041Z,61.40
2023-03-10T05:59:57.847Z,61.50
2023-03-10T06:00:33.920Z,61.60
2023-03-10T06:01:08.226Z,61.60
2023-03-10T06:01:43.258Z,61.70
2023-03-10T06:02:19.562Z,61.70
2023-03-10T06:02:56.054Z,61.90
2023-03-10T06:03:31.209Z,61.90
2023-03-10T06:04:05.967Z,61.90
2023-03-10T06:04:40.635Z,62.00
2023-03-10T06:05:15.510Z,61.80
2023-03-10T06:05:49.376Z,61.80
2023-03-10T06:06:24.200Z,61.90
2023-03-10T06:07:00.706Z,61.90
2023-03-10T06:07:34.800Z,61.90
2023-03-10T06:08:09.753Z,61.80
2023-03-10T06:08:44.515Z,61.90
2023-03-10T06:09:18.492Z,61.90
2023-03-10T06:09:54.760Z,62.10
2023-03-10T06:10:30.846Z,62.20
2023-03-10T06:11:05.158Z,62.10
2023-03-10T06:11:40.562Z,62.20
2023-03-10T06:12:14.658Z,62.30
2023-03-10T06:12:48.487Z,62.50
2023-03-10T06:13:23.096Z,62.70
2023-03-10T06:13:57.106Z,62.90
2023-03-10T06:14:32.460Z,63.60
2023-03-10T06:15:09.113Z,63.30
2023-03-10T06:15:44.916Z,63.30
2023-03-10T06:16:18.660Z,63.20
2023-03-10T06:16:53.916Z,63.40
2023-03-10T06:17:31.186Z,63.20
2023-03-10T06:18:05.739Z,63.10
2023-03-10T06:18:41.114Z,63.30
2023-03-10T06:19:15.404Z,63.50
2023-03-10T06:19:53.048Z,63.60
2023-03-10T06:20:28.236Z,63.50
2023-03-10T06:21:07.107Z,63.70
2023-03-10T06:21:41.456Z,63.90
2023-03-10T06:22:16.241Z,64.00
2023-03-10T06:22:52.083Z,64.10
2023-03-10T06:23:26.901Z,63.90
2023-03-10T06:24:01.802Z,63.30
2023-03-10T06:24:37.375Z,63.10
2023-03-10T06:25:13.154Z,62.80
2023-03-10T06:25:55.600Z,62.60
2023-03-10T06:26:29.519Z,62.00
2023-03-10T06:27:03.190Z,61.80
2023-03-10T06:27:36.860Z,61.40
2023-03-10T06:28:11.083Z,61.40
2023-03-10T06:28:45.989Z,61.00
2023-03-10T06:29:21.666Z,60.80
2023-03-10T06:29:56.084Z,60.20
2023-03-10T06:30:31.552Z,60.30
2023-03-10T06:31:08.732Z,60.50
2023-03-10T06:31:42.153Z,60.50
2023-03-10T06:32:17.440Z,60.40
2023-03-10T06:32:52.958Z,60.40
2023-03-10T06:33:27.978Z,60.20
2023-03-10T06:34:04.337Z,60.20
2023-03-10T06:34:40.162Z,59.90
2023-03-10T06:35:15.292Z,58.80
2023-03-10T06:35:50.141Z,58.20
2023-03-10T06:36:27.316Z,57.70
2023-03-10T06:37:01.648Z,56.70
2023-03-10T06:37:36.350Z,56.10
2023-03-10T06:38:11.215Z,55.80
2023-03-10T06:38:46.300Z,55.70
2023-03-10T06:39:19.527Z,55.10
2023-03-10T06:39:54.976Z,54.70
2023-03-10T06:40:29.807Z,54.60
2023-03-10T06:41:04.008Z,54.80
2023-03-10T06:41:37.790Z,54.70
2023-03-10T06:42:13.582Z,53.80
2023-03-10T06:42:48.563Z,53.60
2023-03-10T06:43:22.527Z,53.40
2023-03-10T06:43:56.954Z,53.40
2023-03-10T06:44:30.562Z,53.10
2023-03-10T06:45:08.690Z,52.60
2023-03-10T06:45:42.565Z,52.30
2023-03-10T06:46:17.754Z,52.50
2023-03-10T06:46:52.423Z,53.30
2023-03-10T06:47:26.822Z,52.80
2023-03-10T06:48:02.712Z,53.00
2023-03-10T06:48:45.058Z,53.20
2023-03-10T06:49:19.396Z,52.80
2023-03-10T06:49:55.937Z,52.80
2023-03-10T06:50:31.720Z,52.70
2023-03-10T06:51:08.892Z,52.90
2023-03-10T06:51:43.944Z,52.80
2023-03-10T06:52:18.563Z,52.80
2023-03-10T06:52:52.822Z,52.70
2023-03-10T06:53:27.563Z,52.70
2023-03-10T06:54:01.378Z,52.60
2023-03-10T06:54:35.777Z,52.70
2023-03-10T06:55:14.464Z,53.00
2023-03-10T06:56:19.622Z,53.20
2023-03-10T06:56:57.253Z,53.30
2023-03-10T06:57:33.696Z,53.30
2023-03-10T06:58:08.789Z,53.40
2023-03-10T06:58:43.248Z,53.70
2023-03-10T06:59:17.355Z,53.60
2023-03-10T06:59:52.339Z,53.80
2023-03-10T07:00:27.297Z,54.00
2023-03-10T07:01:01.794Z,54.30
2023-03-10T07:01:38.211Z,54.40
2023-03-10T07:02:12.286Z,54.60
2023-03-10T07:02:47.632Z,54.80
2023-03-10T07:03:23.000Z,54.90
2023-03-10T07:03:58.148Z,55.10
2023-03-10T07:04:36.892Z,55.20
2023-03-10T07:05:12.807Z,55.00
2023-03-10T07:05:47.321Z,54.80
2023-03-10T07:06:22.869Z,54.70
2023-03-10T07:06:57.780Z,54.80
2023-03-10T07:07:35.478Z,54.60
2023-03-10T07:08:10.329Z,54.50
2023-03-10T07:08:43.727Z,54.60
2023-03-10T07:09:19.039Z,54.40
2023-03-10T07:09:53.456Z,54.40
2023-03-10T07:10:27.381Z,54.40
2023-03-10T07:11:04.351Z,54.40
2023-03-10T07:11:38.148Z,54.50
2023-03-10T07:12:13.636Z,54.60
2023-03-10T07:12:54.745Z,54.70
2023-03-10T07:13:30.478Z,55.00
2023-03-10T07:14:03.712Z,54.90
2023-03-10T07:14:38.260Z,55.10
2023-03-10T07:15:14.661Z,55.40
2023-03-10T07:15:48.838Z,55.40
2023-03-10T07:16:26.754Z,55.40
2023-03-10T07:17:01.294Z,55.50
2023-03-10T07:17:38.920Z,55.60
2023-03-10T07:18:13.568Z,55.30
2023-03-10T07:18:49.824Z,55.10
2023-03-10T07:19:23.883Z,55.10
2023-03-10T07:19:59.473Z,55.10
2023-03-10T07:20:33.948Z,55.10
2023-03-10T07:21:10.102Z,55.00
2023-03-10T07:21:44.321Z,55.00
2023-03-10T07:22:20.045Z,54.80
2023-03-10T07:22:53.494Z,54.20
2023-03-10T07:23:28.433Z,54.00
2023-03-10T07:24:03.992Z,53.70
2023-03-10T07:24:37.871Z,53.60
2023-03-10T07:25:11.917Z,53.20
2023-03-10T07:25:47.057Z,53.10
2023-03-10T07:26:20.441Z,53.00
2023-03-10T07:26:56.185Z,53.00
2023-03-10T07:27:29.960Z,53.00
2023-03-10T07:28:05.830Z,52.90
2023-03-10T07:28:40.847Z,52.70
2023-03-10T07:29:16.467Z,52.80
2023-03-10T07:29:51.454Z,52.90
2023-03-10T07:30:25.925Z,53.10
2023-03-10T07:31:05.207Z,53.00
2023-03-10T07:31:39.288Z,53.00
2023-03-10T07:32:12.950Z,53.20
2023-03-10T07:32:48.135Z,53.30
2023-03-10T07:33:21.502Z,53.50
2023-03-10T07:33:58.310Z,53.80
2023-03-10T07:34:32.141Z,53.90
2023-03-10T07:35:07.481Z,54.20
2023-03-10T07:35:41.923Z,54.50
2023-03-10T07:36:18.253Z,54.60
2023-03-10T07:36:53.749Z,55.10
2023-03-10T07:37:27.633Z,56.00
2023-03-10T07:38:02.132Z,56.90
2023-03-10T07:38:37.877Z,56.40
